Time;durP1;ratioP1;P1;durP2;ratioP2;P2;SDS_P1;SDS_P2;PMS_P1;PMS_P2;Temp;Humidity;BMP_temperature;BMP_pressure;BME280_temperature;BME280_humidity;BME280_pressure;Samples;Min_cycle;Max_cycle;Signal;HPM_P1;HPM_P2
2021/12/15 00:00:36;;;;;;;67.42;27.80;;;;;;;0.16;100.00;101360.71;1746818;82;21908;-86
2021/12/15 00:03:06;;;;;;;57.45;25.17;;;;;;;0.14;100.00;101362.03;1746714;82;21017;-85
2021/12/15 00:05:34;;;;;;;57.13;26.40;;;;;;;0.13;100.00;101364.60;1746534;82;21050;-86
2021/12/15 00:08:07;;;;;;;56.37;23.70;;;;;;;0.12;100.00;101368.89;1716842;82;21058;-85
2021/12/15 00:10:34;;;;;;;57.73;24.37;;;;;;;0.14;100.00;101377.82;1746617;82;21057;-83
2021/12/15 00:13:02;;;;;;;65.22;27.27;;;;;;;0.14;100.00;101381.24;1746745;82;21218;-84
2021/12/15 00:15:29;;;;;;;52.75;22.73;;;;;;;0.17;100.00;101384.59;1746663;82;21109;-83
2021/12/15 00:17:57;;;;;;;56.55;26.33;;;;;;;0.17;100.00;101384.17;1746645;82;21085;-84
2021/12/15 00:20:27;;;;;;;52.58;23.45;;;;;;;0.19;100.00;101392.69;1716949;82;20970;-85
2021/12/15 00:22:55;;;;;;;50.38;25.05;;;;;;;0.21;100.00;101402.44;1746731;82;21634;-86
2021/12/15 00:25:26;;;;;;;48.65;23.25;;;;;;;0.23;100.00;101404.99;1746706;82;21180;-85
2021/12/15 00:27:53;;;;;;;43.20;22.02;;;;;;;0.25;100.00;101410.48;1746806;82;21046;-84
2021/12/15 00:30:22;;;;;;;48.63;24.18;;;;;;;0.28;100.00;101411.69;1746772;82;21105;-85
2021/12/15 00:32:52;;;;;;;54.50;25.62;;;;;;;0.35;100.00;101405.19;1746979;82;21050;-87
2021/12/15 00:35:21;;;;;;;57.35;25.95;;;;;;;0.37;100.00;101393.17;1746735;82;21057;-85
2021/12/15 00:37:49;;;;;;;49.70;24.55;;;;;;;0.40;100.00;101397.80;1716974;82;21176;-85
2021/12/15 00:40:19;;;;;;;51.40;26.17;;;;;;;0.42;100.00;101387.53;1746806;82;21058;-85
2021/12/15 00:42:48;;;;;;;50.40;23.55;;;;;;;0.47;100.00;101390.83;1746682;82;21133;-84
2021/12/15 00:45:17;;;;;;;42.95;22.60;;;;;;;0.51;100.00;101396.73;1746630;82;21347;-84
2021/12/15 00:47:46;;;;;;;43.02;22.15;;;;;;;0.55;100.00;101402.23;1746479;82;21030;-85
2021/12/15 00:50:17;;;;;;;42.83;23.00;;;;;;;0.56;100.00;101399.63;1716932;82;21151;-84
2021/12/15 00:52:47;;;;;;;41.40;22.37;;;;;;;0.60;100.00;101402.97;1746419;82;21061;-84
2021/12/15 00:55:22;;;;;;;39.85;22.60;;;;;;;0.60;100.00;101423.47;1746668;82;21113;-87
2021/12/15 00:57:50;;;;;;;45.70;24.30;;;;;;;0.62;100.00;101416.15;1713611;82;21050;-85
2021/12/15 01:00:28;;;;;;;35.00;21.90;;;;;;;0.65;100.00;101427.22;1745653;82;21070;-84
2021/12/15 01:02:57;;;;;;;38.28;23.45;;;;;;;0.65;100.00;101419.08;1717078;82;21813;-85
2021/12/15 01:05:30;;;;;;;33.95;20.20;;;;;;;0.64;100.00;101421.27;1746392;82;21066;-85
2021/12/15 01:07:59;;;;;;;36.35;22.30;;;;;;;0.65;100.00;101420.81;1747079;82;21495;-84
2021/12/15 01:10:45;;;;;;;36.20;21.07;;;;;;;0.65;100.00;101408.83;1746652;82;21566;-85
2021/12/15 01:19:48;;;;;;;36.50;21.50;;;;;;;0.72;100.00;101410.83;1747036;82;20932;-83
2021/12/15 01:22:32;;;;;;;36.65;20.92;;;;;;;0.72;100.00;101423.66;1746555;82;21042;-83
2021/12/15 01:25:18;;;;;;;37.05;21.57;;;;;;;0.73;100.00;101415.09;1721090;82;21002;-83
2021/12/15 01:27:45;;;;;;;39.90;22.60;;;;;;;0.74;100.00;101400.11;1743690;81;21041;-84
2021/12/15 01:30:16;;;;;;;35.40;19.73;;;;;;;0.74;100.00;101405.24;1759628;81;21142;-84
2021/12/15 01:32:48;;;;;;;38.73;21.02;;;;;;;0.72;100.00;101404.42;1723958;83;21511;-84
2021/12/15 01:35:16;;;;;;;35.30;19.70;;;;;;;0.69;100.00;101408.32;1742541;82;21574;-83
2021/12/15 01:37:45;;;;;;;33.78;19.17;;;;;;;0.67;100.00;101409.64;1785138;78;21056;-84
2021/12/15 01:40:23;;;;;;;32.23;18.85;;;;;;;0.67;100.00;101407.53;1785002;80;21108;-84
2021/12/15 01:42:45;;;;;;;32.63;19.02;;;;;;;0.67;100.00;101400.67;1780163;80;21147;-84
2021/12/15 01:48:05;;;;;;;31.20;17.90;;;;;;;0.65;100.00;101394.73;1784787;80;21088;-85
2021/12/15 01:50:37;;;;;;;29.52;17.82;;;;;;;0.66;100.00;101398.15;1784643;80;21060;-85
2021/12/15 01:53:07;;;;;;;28.32;17.07;;;;;;;0.69;100.00;101396.36;1752278;80;21049;-83
2021/12/15 01:56:10;;;;;;;;;;;;;;;;;;;;;
2021/12/15 01:58:35;;;;;;;28.83;17.25;;;;;;;0.70;100.00;101407.03;1636908;85;21117;-87
2021/12/15 02:01:08;;;;;;;32.83;19.12;;;;;;;0.69;100.00;101408.32;1721291;81;21522;-84
2021/12/15 02:03:36;;;;;;;28.87;17.85;;;;;;;0.69;100.00;101405.76;1751174;80;21692;-83
2021/12/15 02:06:05;;;;;;;30.17;17.90;;;;;;;0.70;100.00;101407.45;1723899;81;21055;-83
2021/12/15 02:08:35;;;;;;;32.83;18.87;;;;;;;0.72;100.00;101408.27;1751371;80;21020;-83
2021/12/15 02:11:05;;;;;;;29.75;17.35;;;;;;;0.75;100.00;101402.64;1751012;80;21072;-83
2021/12/15 02:13:33;;;;;;;32.23;17.52;;;;;;;0.74;100.00;101401.39;1747766;80;21063;-83
2021/12/15 02:16:04;;;;;;;29.15;17.20;;;;;;;0.70;100.00;101401.91;1750768;80;21036;-85
2021/12/15 02:18:37;;;;;;;34.60;18.52;;;;;;;0.69;100.00;101407.04;1741945;82;21057;-87
2021/12/15 02:21:10;;;;;;;31.75;18.15;;;;;;;0.70;100.00;101408.73;1738159;82;21115;-85
2021/12/15 02:23:43;;;;;;;28.02;17.40;;;;;;;0.74;100.00;101412.94;1747537;79;20994;-84
2021/12/15 02:26:23;;;;;;;26.62;16.02;;;;;;;0.74;100.00;101415.50;1750435;80;21050;-84
2021/12/15 02:29:02;;;;;;;29.45;16.85;;;;;;;0.72;100.00;101421.09;1772045;80;21029;-87
2021/12/15 02:31:39;;;;;;;24.23;15.83;;;;;;;0.70;100.00;101422.83;1772436;80;21662;-86
2021/12/15 02:37:20;;;;;;;28.67;16.50;;;;;;;0.69;100.00;101416.02;1793453;79;21521;-84
2021/12/15 02:40:06;;;;;;;27.58;16.23;;;;;;;0.71;100.00;101421.96;1771587;79;21522;-84
2021/12/15 02:42:38;;;;;;;23.20;14.90;;;;;;;0.72;100.00;101428.78;1753592;81;21000;-85
2021/12/15 02:45:11;;;;;;;25.77;15.38;;;;;;;0.70;100.00;101426.67;1753491;80;21135;-85
2021/12/15 02:47:39;;;;;;;24.37;14.98;;;;;;;0.70;100.00;101426.26;1753917;81;21149;-83
2021/12/15 02:50:12;;;;;;;25.75;16.05;;;;;;;0.70;100.00;101429.24;1757290;80;21047;-83
2021/12/15 02:52:40;;;;;;;27.05;16.07;;;;;;;0.69;100.00;101436.52;1757837;81;21036;-83
2021/12/15 02:55:10;;;;;;;28.75;15.83;;;;;;;0.67;100.00;101433.17;1757699;81;21055;-83
2021/12/15 02:57:38;;;;;;;25.20;15.90;;;;;;;0.67;100.00;101431.44;1728448;81;21009;-83
2021/12/15 03:00:22;;;;;;;23.67;14.83;;;;;;;0.67;100.00;101428.05;1784144;80;21997;-83
2021/12/15 03:03:37;;;;;;;23.65;15.28;;;;;;;0.64;100.00;101431.52;1780507;80;21003;-84
2021/12/15 03:05:33;;;;;;;24.80;17.02;;;;;;;0.62;100.00;101430.25;1750220;80;21697;-84
2021/12/15 03:08:09;;;;;;;23.87;15.53;;;;;;;0.58;100.00;101413.67;1782077;80;21031;-86
2021/12/15 03:16:12;;;;;;;22.80;14.95;;;;;;;0.48;100.00;101425.84;1784724;80;21038;-84
2021/12/15 03:18:40;;;;;;;25.02;15.70;;;;;;;0.49;100.00;101428.81;1752104;80;21631;-83
2021/12/15 03:21:15;;;;;;;21.52;13.83;;;;;;;0.51;100.00;101433.48;1785299;80;21031;-83
2021/12/15 03:23:55;;;;;;;21.60;14.95;;;;;;;0.53;100.00;101434.27;1751868;80;21149;-83
2021/12/15 03:26:34;;;;;;;22.80;15.58;;;;;;;0.56;100.00;101434.22;1782164;80;21132;-84
2021/12/15 03:35:06;;;;;;;21.30;14.85;;;;;;;0.61;100.00;101437.98;1785687;80;21075;-88
2021/12/15 03:37:35;;;;;;;;;;;;;;;0.63;100.00;101438.34;1718169;82;21025;-83
2021/12/15 03:40:18;;;;;;;24.95;14.85;;;;;;;0.62;100.00;101435.83;1743617;81;21933;-84
2021/12/15 03:42:57;;;;;;;21.27;14.60;;;;;;;0.58;100.00;101434.19;1784433;80;21039;-84
2021/12/15 03:45:39;;;;;;;19.07;13.38;;;;;;;0.56;100.00;101439.34;1752375;80;21066;-85
2021/12/15 03:48:11;;;;;;;18.37;12.70;;;;;;;0.53;100.00;101435.55;1785047;80;21109;-84
2021/12/15 03:50:38;;;;;;;23.38;15.35;;;;;;;0.52;100.00;101431.30;1780826;80;21071;-82
2021/12/15 03:53:06;;;;;;;22.40;15.72;;;;;;;0.53;100.00;101432.99;1785075;80;21154;-83
2021/12/15 03:55:36;;;;;;;23.35;14.75;;;;;;;0.53;100.00;101436.84;1785003;80;21567;-84
2021/12/15 03:58:11;;;;;;;19.12;13.53;;;;;;;0.51;100.00;101429.64;1784973;80;20999;-85
2021/12/15 04:00:43;;;;;;;18.00;12.78;;;;;;;0.51;100.00;101433.48;1744300;81;21032;-84
2021/12/15 04:03:22;;;;;;;16.75;12.35;;;;;;;0.51;100.00;101448.86;1741020;81;21616;-87
2021/12/15 04:05:50;;;;;;;20.50;13.03;;;;;;;0.50;100.00;101449.73;1780439;80;21160;-85
2021/12/15 04:08:17;;;;;;;20.55;14.38;;;;;;;0.48;100.00;101456.59;1785103;80;21059;-82
2021/12/15 04:10:45;;;;;;;18.65;13.08;;;;;;;0.48;100.00;101452.75;1785466;80;20964;-83
2021/12/15 04:13:13;;;;;;;17.80;12.88;;;;;;;0.51;100.00;101450.56;1785111;80;20992;-84
2021/12/15 04:15:47;;;;;;;18.62;13.78;;;;;;;0.50;100.00;101459.98;1752495;80;21182;-83
2021/12/15 04:18:12;;;;;;;16.70;12.88;;;;;;;0.49;100.00;101459.98;1772352;78;21089;-83
2021/12/15 04:20:41;;;;;;;17.55;13.60;;;;;;;0.51;100.00;101457.83;1785446;78;21885;-83
2021/12/15 04:23:12;;;;;;;16.75;12.90;;;;;;;0.51;100.00;101456.97;1784915;79;21089;-87
2021/12/15 04:25:41;;;;;;;17.93;13.37;;;;;;;0.51;100.00;101455.27;1752923;80;21041;-83
2021/12/15 04:28:15;;;;;;;15.90;12.00;;;;;;;0.52;100.00;101454.81;1785012;78;20997;-83
2021/12/15 04:30:48;;;;;;;19.60;13.45;;;;;;;0.52;100.00;101452.25;1784484;80;21822;-82
2021/12/15 04:33:44;;;;;;;16.80;12.53;;;;;;;0.54;100.00;101451.34;1760600;80;21633;-83
2021/12/15 04:36:14;;;;;;;19.10;13.50;;;;;;;0.53;100.00;101447.54;1741835;81;21060;-83
2021/12/15 04:38:42;;;;;;;20.02;13.00;;;;;;;0.52;100.00;101449.69;1737788;80;21575;-85
2021/12/15 04:41:15;;;;;;;19.25;13.88;;;;;;;0.52;100.00;101444.56;1786411;78;21033;-83
2021/12/15 04:43:45;;;;;;;17.95;13.80;;;;;;;0.51;100.00;101445.44;1783812;78;21211;-83
2021/12/15 04:46:12;;;;;;;17.40;12.98;;;;;;;0.48;100.00;101446.34;1785611;78;21042;-84
2021/12/15 04:48:41;;;;;;;21.77;13.98;;;;;;;0.47;100.00;101444.66;1746698;80;21025;-84
2021/12/15 04:51:08;;;;;;;17.95;12.05;;;;;;;0.42;100.00;101440.89;1742098;80;21083;-86
2021/12/15 04:53:37;;;;;;;24.77;15.90;;;;;;;0.43;100.00;101443.04;1711323;82;21068;-87
2021/12/15 04:56:06;;;;;;;29.95;19.48;;;;;;;0.40;100.00;101443.09;1738713;80;21109;-84
2021/12/15 04:58:35;;;;;;;19.95;14.00;;;;;;;0.39;100.00;101446.52;1784927;80;21540;-83
2021/12/15 05:01:07;;;;;;;25.08;15.10;;;;;;;0.37;100.00;101450.82;1782766;80;21032;-83
2021/12/15 05:03:34;;;;;;;23.57;16.15;;;;;;;0.35;100.00;101451.31;1751232;80;21088;-82
2021/12/15 05:06:02;;;;;;;20.15;13.53;;;;;;;0.35;100.00;101452.59;1751617;80;21096;-81
2021/12/15 05:08:30;;;;;;;18.80;13.20;;;;;;;0.34;100.00;101449.62;1783431;80;21169;-81
2021/12/15 05:10:59;;;;;;;18.62;12.65;;;;;;;0.31;100.00;101451.36;1784330;80;20952;-83
2021/12/15 05:13:27;;;;;;;18.00;12.43;;;;;;;0.29;100.00;101451.81;1726791;80;22349;-79
2021/12/15 05:15:55;;;;;;;19.05;12.63;;;;;;;0.28;100.00;101450.57;1784546;80;21105;-81
2021/12/15 05:18:24;;;;;;;21.20;12.45;;;;;;;0.34;100.00;101464.54;1784567;80;21657;-81
2021/12/15 05:20:53;;;;;;;23.30;13.62;;;;;;;0.49;100.00;101448.45;1750541;79;21056;-82
2021/12/15 05:23:27;;;;;;;32.03;15.15;;;;;;;0.69;100.00;101458.31;1734204;82;21543;-85
2021/12/15 05:25:50;;;;;;;19.65;14.13;;;;;;;0.74;100.00;101457.34;1732537;82;21093;-83
2021/12/15 05:28:17;;;;;;;19.37;12.73;;;;;;;0.84;100.00;101469.53;1784808;80;20995;-81
2021/12/15 05:30:45;;;;;;;26.05;14.20;;;;;;;0.84;100.00;101466.97;1763679;80;21041;-81
2021/12/15 05:33:13;;;;;;;18.77;12.80;;;;;;;0.85;100.00;101475.08;1754593;81;21789;-80
2021/12/15 05:35:40;;;;;;;18.67;12.33;;;;;;;0.99;100.00;101473.96;1786243;80;21124;-81
2021/12/15 05:38:08;;;;;;;19.15;12.88;;;;;;;0.97;100.00;101469.30;1750812;81;20998;-81
2021/12/15 05:40:36;;;;;;;19.65;13.60;;;;;;;0.92;100.00;101463.81;1747876;81;21010;-82
2021/12/15 05:43:06;;;;;;;21.57;13.10;;;;;;;0.90;100.00;101468.57;1784090;80;21128;-83
2021/12/15 05:45:38;;;;;;;16.73;10.90;;;;;;;0.83;100.00;101467.02;1699280;83;21516;-81
2021/12/15 05:48:10;;;;;;;17.92;11.78;;;;;;;0.76;100.00;101458.17;1784847;80;21913;-81
2021/12/15 05:50:47;;;;;;;25.75;11.73;;;;;;;0.76;100.00;101453.50;1780062;80;21040;-84
2021/12/15 05:53:14;;;;;;;18.55;12.28;;;;;;;0.75;100.00;101455.65;1785791;80;21041;-80
2021/12/15 05:55:44;;;;;;;17.27;11.78;;;;;;;0.78;100.00;101459.41;1785291;80;21027;-80
2021/12/15 05:58:12;;;;;;;17.12;11.80;;;;;;;0.93;100.00;101460.37;1784830;80;21856;-85
2021/12/15 06:00:43;;;;;;;15.72;10.90;;;;;;;0.93;100.00;101465.50;1784383;80;21580;-86
2021/12/15 06:03:10;;;;;;;18.98;11.70;;;;;;;0.85;100.00;101475.08;1750938;80;21031;-86
2021/12/15 06:05:38;;;;;;;17.80;11.57;;;;;;;0.83;100.00;101472.14;1786286;78;21037;-85
2021/12/15 06:08:06;;;;;;;16.60;11.30;;;;;;;0.77;100.00;101461.14;1780918;78;21156;-85
2021/12/15 06:10:36;;;;;;;14.85;10.55;;;;;;;0.81;100.00;101458.08;1797051;78;21125;-84
2021/12/15 06:13:08;;;;;;;34.15;14.45;;;;;;;0.90;100.00;101464.72;1775367;78;21026;-85
2021/12/15 06:15:37;;;;;;;18.80;11.05;;;;;;;0.92;100.00;101456.56;1784731;78;21023;-84
2021/12/15 06:18:12;;;;;;;22.02;10.82;;;;;;;1.01;100.00;101469.20;1753767;80;21025;-86
2021/12/15 06:20:43;;;;;;;18.98;11.20;;;;;;;1.09;100.00;101476.71;1744923;80;21057;-86
2021/12/15 06:23:17;;;;;;;22.25;13.13;;;;;;;1.05;100.00;101473.82;1718960;82;21161;-86
2021/12/15 06:25:42;;;;;;;27.48;11.73;;;;;;;1.01;100.00;101474.75;1749132;82;21037;-86
2021/12/15 06:28:09;;;;;;;16.52;11.90;;;;;;;1.07;100.00;101469.52;1749434;82;21076;-84
2021/12/15 06:30:38;;;;;;;17.17;11.18;;;;;;;1.13;100.00;101470.66;1718515;82;21081;-85
2021/12/15 06:33:10;;;;;;;19.00;12.30;;;;;;;1.17;100.00;101473.54;1750517;81;21022;-85
2021/12/15 06:35:37;;;;;;;17.80;11.47;;;;;;;1.10;100.00;101474.14;1750038;82;21180;-85
2021/12/15 06:38:05;;;;;;;21.02;12.25;;;;;;;1.08;100.00;101477.62;1718546;82;21057;-84
2021/12/15 06:40:34;;;;;;;18.32;12.43;;;;;;;1.10;100.00;101479.27;1718757;82;21128;-85
2021/12/15 06:43:01;;;;;;;19.10;12.40;;;;;;;1.06;100.00;101483.21;1718605;82;21053;-85
2021/12/15 06:45:37;;;;;;;75.08;13.78;;;;;;;0.99;100.00;101484.22;1750777;82;21076;-86
2021/12/15 06:59:06;;;;;;;18.37;11.03;;;;;;;1.00;100.00;101485.91;1780330;80;21041;-89
2021/12/15 07:01:35;;;;;;;15.48;11.03;;;;;;;0.99;100.00;101490.18;1780335;80;21172;-80
2021/12/15 07:04:02;;;;;;;19.20;11.90;;;;;;;0.94;100.00;101492.84;1780182;80;21080;-82
2021/12/15 07:06:29;;;;;;;16.07;11.03;;;;;;;0.91;100.00;101501.91;1780185;80;21034;-82
2021/12/15 07:08:56;;;;;;;15.10;10.50;;;;;;;0.89;100.00;101502.36;1748772;80;21030;-82
2021/12/15 07:11:25;;;;;;;18.27;10.80;;;;;;;0.88;100.00;101493.42;1767698;80;21561;-82
2021/12/15 07:13:52;;;;;;;18.02;10.65;;;;;;;0.88;100.00;101498.10;1759040;80;21160;-84
2021/12/15 07:16:24;;;;;;;17.45;12.40;;;;;;;0.93;100.00;101504.42;1779615;80;21991;-84
2021/12/15 07:19:06;;;;;;;16.00;11.28;;;;;;;0.93;100.00;101498.84;1757135;80;21045;-82
2021/12/15 07:21:24;;;;;;;16.65;10.75;;;;;;;0.94;100.00;101500.98;1716117;80;21108;-82
2021/12/15 07:23:54;;;;;;;16.93;11.20;;;;;;;0.94;100.00;101500.53;1765705;80;21277;-81
2021/12/15 07:26:24;;;;;;;16.77;10.80;;;;;;;0.99;100.00;101502.17;1745694;80;21115;-83
2021/12/15 07:28:51;;;;;;;17.32;11.65;;;;;;;0.98;100.00;101506.45;1745093;81;21030;-81
2021/12/15 07:31:19;;;;;;;18.80;12.33;;;;;;;0.93;100.00;101500.12;1756829;80;21084;-81
2021/12/15 07:33:47;;;;;;;22.07;13.03;;;;;;;0.90;100.00;101500.20;1772799;80;20950;-81
2021/12/15 07:36:16;;;;;;;19.02;11.80;;;;;;;0.91;100.00;101501.91;1750390;80;21499;-81
2021/12/15 07:38:43;;;;;;;17.77;12.75;;;;;;;0.94;100.00;101503.55;1750245;80;21030;-81
2021/12/15 07:41:37;;;;;;;25.05;13.20;;;;;;;1.01;100.00;101501.69;1752934;80;21590;-82
2021/12/15 07:44:01;;;;;;;21.10;12.85;;;;;;;1.14;100.00;101507.40;1779079;80;21002;-80
2021/12/15 07:46:30;;;;;;;15.03;11.18;;;;;;;1.18;100.00;101501.34;1807603;78;21551;-84
2021/12/15 07:48:59;;;;;;;16.17;11.73;;;;;;;1.18;100.00;101502.62;1822431;78;20989;-81
2021/12/15 07:51:26;;;;;;;17.77;11.63;;;;;;;1.16;100.00;101500.07;1764259;80;21748;-81
2021/12/15 07:53:53;;;;;;;17.20;12.10;;;;;;;1.11;100.00;101503.19;1751700;80;20986;-80
2021/12/15 07:56:20;;;;;;;18.35;12.33;;;;;;;1.13;100.00;101497.59;1779987;80;21092;-82
2021/12/15 07:58:47;;;;;;;15.80;11.12;;;;;;;1.15;100.00;101500.11;1778840;80;21037;-80
2021/12/15 08:01:16;;;;;;;20.27;12.53;;;;;;;1.15;100.00;101490.72;1761092;79;21533;-81
2021/12/15 08:03:43;;;;;;;19.40;13.53;;;;;;;1.19;100.00;101488.92;1764447;79;21585;-81
2021/12/15 08:06:10;;;;;;;17.67;12.45;;;;;;;1.19;100.00;101485.08;1746256;78;21115;-81
2021/12/15 08:08:38;;;;;;;17.32;11.68;;;;;;;1.15;100.00;101483.44;1769035;79;20985;-82
2021/12/15 08:15:18;;;;;;;15.03;10.15;;;;;;;1.16;100.00;101481.28;1766914;81;20997;-82
2021/12/15 08:17:50;;;;;;;15.10;10.93;;;;;;;1.15;100.00;101482.16;1732534;82;21880;-81
2021/12/15 08:20:21;;;;;;;14.20;10.10;;;;;;;1.17;100.00;101485.54;1732298;82;21086;-82
2021/12/15 08:22:48;;;;;;;15.53;10.60;;;;;;;1.16;100.00;101487.24;1732776;82;21033;-82
2021/12/15 08:25:18;;;;;;;14.70;10.35;;;;;;;1.25;100.00;101482.37;1704383;82;21056;-81
2021/12/15 08:27:50;;;;;;;14.47;10.65;;;;;;;1.29;100.00;101476.27;1756365;79;21049;-83
2021/12/15 08:30:23;;;;;;;16.37;11.30;;;;;;;1.25;100.00;101475.50;1764079;80;21108;-82
2021/12/15 08:32:54;;;;;;;15.30;9.45;;;;;;;1.20;100.00;101477.79;1792353;80;20994;-83
2021/12/15 08:35:29;;;;;;;15.25;10.63;;;;;;;1.17;100.00;101473.54;1713119;81;21100;-83
2021/12/15 08:37:56;;;;;;;17.07;10.72;;;;;;;1.20;100.00;101481.19;1795152;79;21443;-83
2021/12/15 08:40:25;;;;;;;13.98;10.40;;;;;;;1.26;100.00;101479.76;1763708;81;21561;-85
2021/12/15 08:42:54;;;;;;;12.88;9.38;;;;;;;1.35;100.00;101470.16;1736193;81;21839;-82
2021/12/15 08:45:35;;;;;;;14.35;10.20;;;;;;;1.44;100.00;101472.52;1786007;79;21050;-81
2021/12/15 08:48:07;;;;;;;12.98;10.53;;;;;;;1.44;100.00;101476.38;1740471;81;20977;-80
2021/12/15 08:50:40;;;;;;;13.50;9.70;;;;;;;1.46;100.00;101478.47;1732983;81;21537;-81
2021/12/15 08:53:10;;;;;;;13.22;9.85;;;;;;;1.43;100.00;101467.44;1743356;81;21009;-82
2021/12/15 08:55:36;;;;;;;14.25;10.05;;;;;;;1.40;100.00;101465.34;1759555;81;21464;-80
2021/12/15 08:58:06;;;;;;;14.73;10.98;;;;;;;1.43;100.00;101468.72;1733658;81;21484;-81
2021/12/15 09:00:34;;;;;;;16.67;11.88;;;;;;;1.45;100.00;101467.80;1727535;82;20999;-80
2021/12/15 09:03:06;;;;;;;13.05;10.15;;;;;;;1.52;100.00;101462.92;1716734;82;21635;-80
2021/12/15 09:05:35;;;;;;;14.13;10.48;;;;;;;1.54;100.00;101459.02;1715156;82;22245;-84
2021/12/15 09:08:07;;;;;;;13.43;10.05;;;;;;;1.54;100.00;101455.17;1780866;80;21695;-86
2021/12/15 09:10:39;;;;;;;14.05;10.05;;;;;;;1.57;100.00;101455.11;1764926;80;21049;-82
2021/12/15 09:13:08;;;;;;;15.90;10.90;;;;;;;1.57;100.00;101448.23;1760734;80;21037;-82
2021/12/15 09:15:37;;;;;;;16.67;11.33;;;;;;;1.56;100.00;101446.55;1774989;80;20970;-83
2021/12/15 09:18:07;;;;;;;12.20;9.98;;;;;;;1.54;100.00;101440.63;1767764;79;21028;-83
2021/12/15 09:20:37;;;;;;;13.38;9.78;;;;;;;1.53;100.00;101431.23;1764423;80;21826;-81
2021/12/15 09:23:10;;;;;;;;;;;;;;;1.47;100.00;101428.83;1787500;79;21004;-85
2021/12/15 09:25:37;;;;;;;17.82;10.65;;;;;;;1.49;100.00;101428.33;1762922;80;27986;-80
2021/12/15 09:28:07;;;;;;;14.87;10.78;;;;;;;1.47;100.00;101428.83;1770251;79;21577;-81
2021/12/15 09:30:43;;;;;;;15.50;10.32;;;;;;;1.45;100.00;101431.86;1764772;80;20981;-81
2021/12/15 09:33:19;;;;;;;16.55;9.80;;;;;;;1.46;100.00;101432.27;1757496;79;21282;-83
2021/12/15 09:35:53;;;;;;;13.72;10.45;;;;;;;1.47;100.00;101430.53;1771546;80;21430;-80
2021/12/15 09:38:24;;;;;;;13.98;9.55;;;;;;;1.45;100.00;101429.72;1734725;80;21051;-81
2021/12/15 09:40:55;;;;;;;13.83;10.27;;;;;;;1.37;100.00;101433.31;1701637;83;21034;-81
2021/12/15 09:43:27;;;;;;;13.90;9.98;;;;;;;1.37;100.00;101433.31;1735134;81;22083;-85
2021/12/15 10:25:32;;;;;;;15.03;11.88;;;;;;;1.83;100.00;101417.22;1802054;79;22078;-80
2021/12/15 10:28:06;;;;;;;12.80;10.58;;;;;;;1.80;100.00;101426.31;1744839;80;21053;-81
2021/12/15 10:30:44;;;;;;;14.03;10.43;;;;;;;1.77;100.00;101421.23;1745019;80;21047;-80
2021/12/15 10:33:25;;;;;;;14.07;10.23;;;;;;;1.68;100.00;101421.47;1719690;80;21016;-78
2021/12/15 10:36:03;;;;;;;12.53;9.88;;;;;;;1.60;100.00;101425.95;1719217;82;21081;-82
2021/12/15 10:38:51;;;;;;;13.00;10.43;;;;;;;1.54;100.00;101424.37;1711246;80;21009;-81
2021/12/15 10:41:28;;;;;;;14.55;10.48;;;;;;;1.50;100.00;101422.31;1774808;80;21046;-81
2021/12/15 10:44:06;;;;;;;14.95;11.43;;;;;;;1.47;100.00;101415.12;1773068;80;21974;-81
2021/12/15 10:47:06;;;;;;;13.93;10.78;;;;;;;1.48;100.00;101415.54;1745821;80;21025;-85
2021/12/15 10:49:42;;;;;;;16.32;11.73;;;;;;;1.47;100.00;101422.41;1756334;79;21069;-84
2021/12/15 10:52:12;;;;;;;24.45;14.93;;;;;;;1.48;100.00;101429.66;1746444;80;21076;-83
2021/12/15 10:54:46;;;;;;;28.25;14.73;;;;;;;1.46;100.00;101433.55;1750337;81;21585;-83
2021/12/15 10:57:21;;;;;;;22.42;14.15;;;;;;;1.48;100.00;101426.67;1719901;80;21144;-83
2021/12/15 10:59:55;;;;;;;27.17;17.37;;;;;;;1.50;100.00;101430.02;1728101;80;21099;-84
2021/12/15 11:02:32;;;;;;;22.60;14.50;;;;;;;1.52;100.00;101428.72;1737773;80;21108;-84
2021/12/15 11:05:15;;;;;;;15.70;11.68;;;;;;;1.52;100.00;101421.02;1748424;81;21013;-83
2021/12/15 11:07:54;;;;;;;14.25;10.65;;;;;;;1.50;100.00;101426.16;1747828;81;21017;-83
2021/12/15 11:10:31;;;;;;;12.80;10.23;;;;;;;1.50;100.00;101426.16;1749822;80;21546;-84
2021/12/15 11:13:06;;;;;;;15.30;11.12;;;;;;;1.47;100.00;101427.55;1758144;80;21046;-82
2021/12/15 11:15:48;;;;;;;13.28;11.10;;;;;;;1.44;100.00;101427.61;1756156;80;21697;-86
2021/12/15 11:18:24;;;;;;;17.23;11.95;;;;;;;1.43;100.00;101415.65;1745998;80;21665;-84
2021/12/15 11:21:06;;;;;;;20.68;13.93;;;;;;;1.46;100.00;101417.30;1743166;80;21120;-83
2021/12/15 11:23:34;;;;;;;18.87;13.25;;;;;;;1.46;100.00;101424.57;1697791;80;21106;-85
2021/12/15 11:26:11;;;;;;;21.62;13.53;;;;;;;1.48;100.00;101422.81;1714143;82;21087;-83
2021/12/15 11:28:50;;;;;;;22.80;13.72;;;;;;;1.52;100.00;101426.98;1749868;80;21018;-84
2021/12/15 11:31:22;;;;;;;19.15;12.55;;;;;;;1.57;100.00;101425.13;1743386;81;21974;-83
2021/12/15 11:33:54;;;;;;;19.57;12.25;;;;;;;1.62;100.00;101431.90;1730632;81;21077;-83
2021/12/15 11:36:32;;;;;;;13.55;9.08;;;;;;;1.62;100.00;101422.91;1744216;81;21151;-81
2021/12/15 11:39:16;;;;;;;11.43;8.38;;;;;;;1.62;100.00;101419.06;1755553;80;21008;-85
2021/12/15 11:41:49;;;;;;;13.85;8.53;;;;;;;1.63;100.00;101415.16;1696514;83;21007;-85
2021/12/15 11:44:25;;;;;;;10.40;8.80;;;;;;;1.62;100.00;101420.34;1757405;80;21087;-85
2021/12/15 11:47:05;;;;;;;9.70;7.90;;;;;;;1.60;100.00;101415.68;1718849;82;21675;-84
2021/12/15 11:49:40;;;;;;;10.98;7.85;;;;;;;1.58;100.00;101416.55;1748128;80;21150;-82
2021/12/15 11:52:12;;;;;;;10.05;8.35;;;;;;;1.57;100.00;101421.28;1752961;80;21490;-83
2021/12/15 11:54:47;;;;;;;12.68;9.98;;;;;;;1.59;100.00;101418.70;1761280;81;21061;-83
2021/12/15 11:57:26;;;;;;;10.85;9.23;;;;;;;1.58;100.00;101417.84;1694777;83;21091;-85
2021/12/15 12:00:05;;;;;;;12.47;8.18;;;;;;;1.59;100.00;101413.56;1668633;84;21038;-83
2021/12/15 12:02:42;;;;;;;12.03;9.75;;;;;;;1.61;100.00;101424.62;1757668;80;21162;-80
2021/12/15 12:05:27;;;;;;;15.05;9.90;;;;;;;1.63;100.00;101430.56;1750127;80;21047;-81
2021/12/15 12:07:59;;;;;;;27.70;12.00;;;;;;;1.63;100.00;101433.59;1710576;81;21068;-80
2021/12/15 12:10:46;;;;;;;15.72;10.93;;;;;;;1.69;100.00;101443.25;1758423;80;21074;-80
2021/12/15 12:13:24;;;;;;;22.95;10.70;;;;;;;1.78;100.00;101437.48;1724251;82;21098;-78
2021/12/15 12:15:54;;;;;;;14.47;10.58;;;;;;;1.79;100.00;101443.88;1732010;81;21131;-80
2021/12/15 12:18:26;;;;;;;17.32;10.88;;;;;;;1.75;100.00;101446.56;1684150;83;21491;-80
2021/12/15 12:21:03;;;;;;;22.82;11.35;;;;;;;1.71;100.00;101442.77;1708947;83;21058;-80
2021/12/15 12:23:33;;;;;;;20.30;12.65;;;;;;;1.74;100.00;101439.28;1652539;84;21569;-81
2021/12/15 12:26:05;;;;;;;14.13;10.85;;;;;;;1.86;100.00;101445.84;1697751;83;21091;-81
2021/12/15 12:28:40;;;;;;;17.92;11.08;;;;;;;1.97;100.00;101448.13;1672103;83;21353;-81
2021/12/15 12:31:13;;;;;;;13.65;11.18;;;;;;;1.93;100.00;101458.92;1687827;83;21101;-84
2021/12/15 12:33:42;;;;;;;15.53;10.80;;;;;;;1.89;100.00;101456.87;1760705;80;21075;-80
2021/12/15 12:36:19;;;;;;;42.15;12.00;;;;;;;1.86;100.00;101454.41;1745414;80;21066;-79
2021/12/15 12:38:55;;;;;;;31.23;11.33;;;;;;;1.80;100.00;101449.42;1748209;80;21704;-80
2021/12/15 12:41:28;;;;;;;17.20;10.05;;;;;;;1.77;100.00;101444.77;1709848;81;21228;-80
2021/12/15 12:44:00;;;;;;;25.23;10.95;;;;;;;1.75;100.00;101449.12;1735712;80;21062;-79
2021/12/15 12:46:46;;;;;;;14.30;11.05;;;;;;;1.73;100.00;101453.86;1717646;81;21035;-78
2021/12/15 13:00:33;;;;;;;33.33;18.85;;;;;;;1.81;100.00;101469.06;1766772;80;21712;-78
2021/12/15 13:03:15;;;;;;;23.87;12.75;;;;;;;1.73;100.00;101466.70;1685593;83;21053;-80